sensor_id;sensor_type;location;lat;lon;timestamp;pressure;altitude;pressure_sealevel;temperature;humidity
61434;BME280;47300;46.192;9.000;2022-11-09T00:01:17;98656.06;;;10.03;94.58
61434;BME280;47300;46.192;9.000;2022-11-09T00:03:42;98658.66;;;9.96;94.38
61434;BME280;47300;46.192;9.000;2022-11-09T00:06:08;98649.03;;;9.89;92.87
61434;BME280;47300;46.192;9.000;2022-11-09T00:08:35;98652.53;;;9.91;91.92
61434;BME280;47300;46.192;9.000;2022-11-09T00:11:05;98640.31;;;9.87;91.84
61434;BME280;47300;46.192;9.000;2022-11-09T00:13:31;98640.28;;;9.84;92.49
61434;BME280;47300;46.192;9.000;2022-11-09T00:15:59;98639.41;;;9.93;91.11
61434;BME280;47300;46.192;9.000;2022-11-09T00:18:26;98635.06;;;9.98;90.44
61434;BME280;47300;46.192;9.000;2022-11-09T00:20:52;98633.31;;;10.00;89.31
61434;BME280;47300;46.192;9.000;2022-11-09T00:23:17;98629.84;;;10.07;88.39
61434;BME280;47300;46.192;9.000;2022-11-09T00:25:42;98639.47;;;10.14;88.17
61434;BME280;47300;46.192;9.000;2022-11-09T00:28:08;98635.06;;;10.15;89.00
61434;BME280;47300;46.192;9.000;2022-11-09T00:30:33;98647.25;;;9.79;93.89
61434;BME280;47300;46.192;9.000;2022-11-09T00:32:58;98643.72;;;9.64;94.73
61434;BME280;47300;46.192;9.000;2022-11-09T00:35:23;98643.72;;;9.61;95.29
61434;BME280;47300;46.192;9.000;2022-11-09T00:37:49;98647.22;;;9.63;96.42
61434;BME280;47300;46.192;9.000;2022-11-09T00:40:14;98650.69;;;9.64;96.62
61434;BME280;47300;46.192;9.000;2022-11-09T00:42:40;98646.34;;;9.63;97.50
61434;BME280;47300;46.192;9.000;2022-11-09T00:45:05;98639.34;;;9.62;96.75
61434;BME280;47300;46.192;9.000;2022-11-09T00:47:31;98633.25;;;9.64;95.14
61434;BME280;47300;46.192;9.000;2022-11-09T00:49:56;98637.66;;;9.81;95.98
61434;BME280;47300;46.192;9.000;2022-11-09T00:52:21;98642.94;;;9.87;95.67
61434;BME280;47300;46.192;9.000;2022-11-09T00:54:47;98644.69;;;9.91;95.74
61434;BME280;47300;46.192;9.000;2022-11-09T00:57:12;98641.16;;;9.91;96.50
61434;BME280;47300;46.192;9.000;2022-11-09T00:59:38;98630.69;;;9.89;95.31
61434;BME280;47300;46.192;9.000;2022-11-09T01:02:03;98629.81;;;9.96;94.51
61434;BME280;47300;46.192;9.000;2022-11-09T01:04:28;98614.97;;;9.98;95.45
61434;BME280;47300;46.192;9.000;2022-11-09T01:06:54;98620.16;;;9.83;97.04
61434;BME280;47300;46.192;9.000;2022-11-09T01:09:19;98612.31;;;9.80;96.75
61434;BME280;47300;46.192;9.000;2022-11-09T01:11:44;98609.72;;;9.95;96.32
61434;BME280;47300;46.192;9.000;2022-11-09T01:14:10;98599.22;;;9.91;97.19
61434;BME280;47300;46.192;9.000;2022-11-09T01:16:35;98603.56;;;9.84;97.13
61434;BME280;47300;46.192;9.000;2022-11-09T01:19:01;98606.19;;;9.85;95.19
61434;BME280;47300;46.192;9.000;2022-11-09T01:21:27;98601.84;;;9.89;96.09
61434;BME280;47300;46.192;9.000;2022-11-09T01:23:53;98609.72;;;9.89;95.26
61434;BME280;47300;46.192;9.000;2022-11-09T01:26:19;98607.09;;;9.97;94.51
61434;BME280;47300;46.192;9.000;2022-11-09T01:28:44;98603.59;;;9.95;93.69
61434;BME280;47300;46.192;9.000;2022-11-09T01:31:20;98602.72;;;9.94;92.51
61434;BME280;47300;46.192;9.000;2022-11-09T01:33:46;98601.84;;;10.08;93.77
61434;BME280;47300;46.192;9.000;2022-11-09T01:36:14;98607.09;;;10.12;94.96
61434;BME280;47300;46.192;9.000;2022-11-09T01:38:40;98601.84;;;10.02;95.71
61434;BME280;47300;46.192;9.000;2022-11-09T01:41:07;98605.34;;;10.02;94.84
61434;BME280;47300;46.192;9.000;2022-11-09T01:43:34;98600.09;;;9.83;98.09
61434;BME280;47300;46.192;9.000;2022-11-09T01:46:01;98593.94;;;9.83;99.13
61434;BME280;47300;46.192;9.000;2022-11-09T01:48:36;98594.84;;;9.91;98.82
61434;BME280;47300;46.192;9.000;2022-11-09T01:51:18;98594.84;;;9.80;99.14
61434;BME280;47300;46.192;9.000;2022-11-09T01:53:48;98602.72;;;9.83;99.64
61434;BME280;47300;46.192;9.000;2022-11-09T01:56:15;98592.16;;;9.62;100.00
61434;BME280;47300;46.192;9.000;2022-11-09T01:59:01;98591.31;;;9.55;100.00
61434;BME280;47300;46.192;9.000;2022-11-09T02:01:27;98589.50;;;9.40;100.00
61434;BME280;47300;46.192;9.000;2022-11-09T02:04:00;98588.63;;;9.41;100.00
61434;BME280;47300;46.192;9.000;2022-11-09T02:06:29;98582.50;;;9.37;100.00
61434;BME280;47300;46.192;9.000;2022-11-09T02:08:59;98566.81;;;9.39;100.00
61434;BME280;47300;46.192;9.000;2022-11-09T02:11:28;98574.69;;;9.51;97.59
61434;BME280;47300;46.192;9.000;2022-11-09T02:13:58;98575.59;;;9.67;98.00
61434;BME280;47300;46.192;9.000;2022-11-09T02:16:25;98581.69;;;9.65;97.97
61434;BME280;47300;46.192;9.000;2022-11-09T02:18:56;98581.72;;;9.71;96.93
61434;BME280;47300;46.192;9.000;2022-11-09T02:21:24;98581.72;;;9.80;95.76
61434;BME280;47300;46.192;9.000;2022-11-09T02:23:50;98585.22;;;9.76;98.45
61434;BME280;47300;46.192;9.000;2022-11-09T02:26:22;98581.72;;;9.71;98.92
61434;BME280;47300;46.192;9.000;2022-11-09T02:28:48;98573.84;;;9.76;97.96
61434;BME280;47300;46.192;9.000;2022-11-09T02:31:14;98575.59;;;9.70;97.04
61434;BME280;47300;46.192;9.000;2022-11-09T02:34:03;98569.47;;;9.81;95.17
61434;BME280;47300;46.192;9.000;2022-11-09T02:36:30;98564.25;;;9.85;95.53
61434;BME280;47300;46.192;9.000;2022-11-09T02:38:55;98572.13;;;9.90;96.15
61434;BME280;47300;46.192;9.000;2022-11-09T02:41:22;98568.63;;;9.97;93.13
61434;BME280;47300;46.192;9.000;2022-11-09T02:43:50;98570.38;;;9.88;97.44
61434;BME280;47300;46.192;9.000;2022-11-09T02:46:30;98558.13;;;9.82;98.50
61434;BME280;47300;46.192;9.000;2022-11-09T02:48:56;98552.03;;;9.86;98.40
61434;BME280;47300;46.192;9.000;2022-11-09T02:51:21;98551.16;;;9.85;98.79
61434;BME280;47300;46.192;9.000;2022-11-09T02:53:46;98557.25;;;9.77;100.00
61434;BME280;47300;46.192;9.000;2022-11-09T02:56:12;98559.88;;;9.67;100.00
61434;BME280;47300;46.192;9.000;2022-11-09T02:58:37;98557.22;;;9.66;99.43
61434;BME280;47300;46.192;9.000;2022-11-09T03:01:02;98564.25;;;9.67;99.49
61434;BME280;47300;46.192;9.000;2022-11-09T03:03:28;98567.72;;;9.63;99.87
61434;BME280;47300;46.192;9.000;2022-11-09T03:05:53;98565.09;;;9.64;99.85
61434;BME280;47300;46.192;9.000;2022-11-09T03:08:18;98560.72;;;9.57;100.00
61434;BME280;47300;46.192;9.000;2022-11-09T03:10:43;98563.38;;;9.73;99.03
61434;BME280;47300;46.192;9.000;2022-11-09T03:13:09;98569.47;;;9.84;98.64
61434;BME280;47300;46.192;9.000;2022-11-09T03:15:34;98565.13;;;9.91;99.07
61434;BME280;47300;46.192;9.000;2022-11-09T03:17:59;98557.28;;;9.89;97.57
61434;BME280;47300;46.192;9.000;2022-11-09T03:20:25;98555.50;;;9.96;95.71
61434;BME280;47300;46.192;9.000;2022-11-09T03:22:50;98555.53;;;10.07;97.00
61434;BME280;47300;46.192;9.000;2022-11-09T03:25:15;98558.13;;;10.02;97.34
61434;BME280;47300;46.192;9.000;2022-11-09T03:27:41;98556.41;;;10.07;95.99
61434;BME280;47300;46.192;9.000;2022-11-09T03:30:07;98550.28;;;9.97;99.74
61434;BME280;47300;46.192;9.000;2022-11-09T03:32:32;98554.63;;;10.00;99.51
61434;BME280;47300;46.192;9.000;2022-11-09T03:34:57;98554.66;;;9.98;98.96
61434;BME280;47300;46.192;9.000;2022-11-09T03:37:23;98547.66;;;9.97;98.54
61434;BME280;47300;46.192;9.000;2022-11-09T03:39:48;98555.50;;;9.93;98.74
61434;BME280;47300;46.192;9.000;2022-11-09T03:42:13;98549.41;;;9.91;98.65
61434;BME280;47300;46.192;9.000;2022-11-09T03:44:39;98550.28;;;9.77;98.73
61434;BME280;47300;46.192;9.000;2022-11-09T03:47:04;98543.28;;;9.87;98.60
61434;BME280;47300;46.192;9.000;2022-11-09T03:49:29;98543.28;;;9.79;99.10
61434;BME280;47300;46.192;9.000;2022-11-09T03:51:55;98543.25;;;9.81;98.70
61434;BME280;47300;46.192;9.000;2022-11-09T03:54:20;98531.94;;;9.74;99.08
61434;BME280;47300;46.192;9.000;2022-11-09T03:56:45;98536.28;;;9.81;99.71
61434;BME280;47300;46.192;9.000;2022-11-09T03:59:11;98532.78;;;9.79;100.00
61434;BME280;47300;46.192;9.000;2022-11-09T04:01:36;98535.44;;;9.87;99.30
61434;BME280;47300;46.192;9.000;2022-11-09T04:04:01;98531.94;;;9.88;100.00
61434;BME280;47300;46.192;9.000;2022-11-09T04:06:27;98524.03;;;9.93;100.00
61434;BME280;47300;46.192;9.000;2022-11-09T04:08:52;98518.81;;;9.83;100.00
61434;BME280;47300;46.192;9.000;2022-11-09T04:11:17;98518.81;;;9.85;100.00
61434;BME280;47300;46.192;9.000;2022-11-09T04:13:43;98514.44;;;9.75;100.00
61434;BME280;47300;46.192;9.000;2022-11-09T04:16:08;98508.31;;;9.90;100.00
61434;BME280;47300;46.192;9.000;2022-11-09T04:18:33;98514.47;;;9.87;100.00
61434;BME280;47300;46.192;9.000;2022-11-09T04:20:59;98513.56;;;9.79;100.00
61434;BME280;47300;46.192;9.000;2022-11-09T04:23:24;98510.94;;;9.69;100.00
61434;BME280;47300;46.192;9.000;2022-11-09T04:25:49;98513.53;;;9.55;100.00
61434;BME280;47300;46.192;9.000;2022-11-09T04:28:15;98522.25;;;9.36;100.00
61434;BME280;47300;46.192;9.000;2022-11-09T04:30:40;98527.50;;;9.39;100.00
61434;BME280;47300;46.192;9.000;2022-11-09T04:33:08;98518.78;;;9.46;100.00
61434;BME280;47300;46.192;9.000;2022-11-09T04:35:34;98525.75;;;9.38;100.00
61434;BME280;47300;46.192;9.000;2022-11-09T04:38:05;98523.13;;;9.39;100.00
61434;BME280;47300;46.192;9.000;2022-11-09T04:40:32;98523.13;;;9.46;100.00
61434;BME280;47300;46.192;9.000;2022-11-09T04:42:59;98528.38;;;9.44;100.00
61434;BME280;47300;46.192;9.000;2022-11-09T04:45:25;98538.00;;;9.50;100.00
61434;BME280;47300;46.192;9.000;2022-11-09T04:47:50;98534.53;;;9.80;97.74
61434;BME280;47300;46.192;9.000;2022-11-09T04:50:16;98538.91;;;9.80;97.22
61434;BME280;47300;46.192;9.000;2022-11-09T04:52:41;98540.66;;;9.79;100.00
61434;BME280;47300;46.192;9.000;2022-11-09T04:55:07;98539.75;;;9.52;99.40
61434;BME280;47300;46.192;9.000;2022-11-09T04:57:32;98534.50;;;9.52;100.00
61434;BME280;47300;46.192;9.000;2022-11-09T04:59:58;98524.03;;;9.48;100.00
61434;BME280;47300;46.192;9.000;2022-11-09T05:02:23;98521.41;;;9.54;100.00
61434;BME280;47300;46.192;9.000;2022-11-09T05:04:48;98523.16;;;9.64;100.00
61434;BME280;47300;46.192;9.000;2022-11-09T05:07:14;98517.06;;;9.72;100.00
61434;BME280;47300;46.192;9.000;2022-11-09T05:09:39;98506.56;;;9.75;100.00
61434;BME280;47300;46.192;9.000;2022-11-09T05:12:05;98504.81;;;9.84;99.34
61434;BME280;47300;46.192;9.000;2022-11-09T05:14:30;98516.19;;;9.91;100.00
61434;BME280;47300;46.192;9.000;2022-11-09T05:16:55;98524.94;;;9.70;99.96
61434;BME280;47300;46.192;9.000;2022-11-09T05:19:21;98520.56;;;9.74;100.00
61434;BME280;47300;46.192;9.000;2022-11-09T05:21:46;98520.56;;;9.70;100.00
61434;BME280;47300;46.192;9.000;2022-11-09T05:24:11;98509.22;;;9.87;100.00
61434;BME280;47300;46.192;9.000;2022-11-09T05:26:38;98512.69;;;9.81;100.00
61434;BME280;47300;46.192;9.000;2022-11-09T05:29:09;98523.19;;;9.75;100.00
61434;BME280;47300;46.192;9.000;2022-11-09T05:31:36;98522.28;;;9.61;100.00
61434;BME280;47300;46.192;9.000;2022-11-09T05:34:02;98519.69;;;9.62;100.00
61434;BME280;47300;46.192;9.000;2022-11-09T05:36:29;98520.56;;;9.75;99.92
61434;BME280;47300;46.192;9.000;2022-11-09T05:38:55;98525.81;;;9.69;100.00
61434;BME280;47300;46.192;9.000;2022-11-09T05:41:21;98528.44;;;9.78;100.00
61434;BME280;47300;46.192;9.000;2022-11-09T05:43:47;98522.31;;;9.79;100.00
61434;BME280;47300;46.192;9.000;2022-11-09T05:46:13;98524.94;;;9.79;100.00
61434;BME280;47300;46.192;9.000;2022-11-09T05:48:39;98525.81;;;9.72;100.00
61434;BME280;47300;46.192;9.000;2022-11-09T05:51:07;98524.03;;;9.49;100.00
61434;BME280;47300;46.192;9.000;2022-11-09T05:53:32;98530.97;;;9.39;100.00
61434;BME280;47300;46.192;9.000;2022-11-09T05:56:16;98520.56;;;9.75;99.45
61434;BME280;47300;46.192;9.000;2022-11-09T05:58:42;98518.81;;;9.83;100.00
61434;BME280;47300;46.192;9.000;2022-11-09T06:01:14;98524.06;;;9.77;100.00
61434;BME280;47300;46.192;9.000;2022-11-09T06:03:39;98513.53;;;9.46;100.00
61434;BME280;47300;46.192;9.000;2022-11-09T06:06:07;98515.31;;;9.58;100.00
61434;BME280;47300;46.192;9.000;2022-11-09T06:08:34;98512.69;;;9.61;100.00
61434;BME280;47300;46.192;9.000;2022-11-09T06:11:05;98513.53;;;9.65;100.00
61434;BME280;47300;46.192;9.000;2022-11-09T06:13:31;98527.56;;;9.76;97.94
61434;BME280;47300;46.192;9.000;2022-11-09T06:15:59;98533.66;;;9.77;97.23
61434;BME280;47300;46.192;9.000;2022-11-09T06:18:26;98538.06;;;9.87;96.95
61434;BME280;47300;46.192;9.000;2022-11-09T06:20:53;98531.03;;;10.03;97.67
61434;BME280;47300;46.192;9.000;2022-11-09T06:23:19;98531.94;;;10.05;97.70
61434;BME280;47300;46.192;9.000;2022-11-09T06:26:08;98536.31;;;9.86;97.40
61434;BME280;47300;46.192;9.000;2022-11-09T06:28:35;98542.41;;;9.93;98.96
61434;BME280;47300;46.192;9.000;2022-11-09T06:31:04;98542.41;;;9.97;99.03
61434;BME280;47300;46.192;9.000;2022-11-09T06:33:30;98535.41;;;10.01;98.84
61434;BME280;47300;46.192;9.000;2022-11-09T06:35:57;98548.53;;;10.06;98.46
61434;BME280;47300;46.192;9.000;2022-11-09T06:38:23;98539.78;;;10.13;98.49
61434;BME280;47300;46.192;9.000;2022-11-09T06:40:51;98543.25;;;10.21;98.72
61434;BME280;47300;46.192;9.000;2022-11-09T06:43:16;98549.38;;;10.25;98.92
61434;BME280;47300;46.192;9.000;2022-11-09T06:45:42;98557.28;;;10.26;97.89
61434;BME280;47300;46.192;9.000;2022-11-09T06:48:09;98562.47;;;10.34;96.87
61434;BME280;47300;46.192;9.000;2022-11-09T06:50:34;98559.88;;;10.33;98.04
61434;BME280;47300;46.192;9.000;2022-11-09T06:53:06;98545.00;;;10.38;98.82
61434;BME280;47300;46.192;9.000;2022-11-09T06:55:33;98558.16;;;10.41;99.23
61434;BME280;47300;46.192;9.000;2022-11-09T06:57:59;98553.78;;;10.40;98.60
61434;BME280;47300;46.192;9.000;2022-11-09T07:00:26;98561.59;;;10.38;98.16
61434;BME280;47300;46.192;9.000;2022-11-09T07:02:52;98559.00;;;10.32;98.11
61434;BME280;47300;46.192;9.000;2022-11-09T07:05:17;98564.25;;;10.26;98.60
61434;BME280;47300;46.192;9.000;2022-11-09T07:07:43;98559.88;;;10.30;98.33
61434;BME280;47300;46.192;9.000;2022-11-09T07:10:09;98558.13;;;10.28;98.73
61434;BME280;47300;46.192;9.000;2022-11-09T07:12:35;98561.63;;;10.31;98.28
61434;BME280;47300;46.192;9.000;2022-11-09T07:15:01;98556.38;;;10.34;98.70
61434;BME280;47300;46.192;9.000;2022-11-09T07:17:31;98549.38;;;10.45;98.50
61434;BME280;47300;46.192;9.000;2022-11-09T07:19:56;98561.66;;;10.45;96.89
61434;BME280;47300;46.192;9.000;2022-11-09T07:22:22;98568.63;;;10.52;98.47
61434;BME280;47300;46.192;9.000;2022-11-09T07:24:47;98573.88;;;10.47;98.71
61434;BME280;47300;46.192;9.000;2022-11-09T07:27:13;98578.25;;;10.42;98.56
61434;BME280;47300;46.192;9.000;2022-11-09T07:29:38;98581.75;;;10.44;99.90
61434;BME280;47300;46.192;9.000;2022-11-09T07:32:04;98591.41;;;10.44;99.30
61434;BME280;47300;46.192;9.000;2022-11-09T07:34:29;98583.53;;;10.44;99.73
61434;BME280;47300;46.192;9.000;2022-11-09T07:36:55;98591.34;;;10.39;99.18
61434;BME280;47300;46.192;9.000;2022-11-09T07:39:20;98593.13;;;10.41;99.11
61434;BME280;47300;46.192;9.000;2022-11-09T07:41:46;98593.13;;;10.40;98.87
61434;BME280;47300;46.192;9.000;2022-11-09T07:44:12;98595.72;;;10.35;99.39
61434;BME280;47300;46.192;9.000;2022-11-09T07:46:42;98607.13;;;10.23;100.00
61434;BME280;47300;46.192;9.000;2022-11-09T07:49:07;98602.72;;;10.10;100.00
61434;BME280;47300;46.192;9.000;2022-11-09T07:51:34;98603.63;;;10.10;100.00
61434;BME280;47300;46.192;9.000;2022-11-09T07:53:59;98613.22;;;10.24;100.00
61434;BME280;47300;46.192;9.000;2022-11-09T07:56:24;98609.72;;;10.31;100.00
61434;BME280;47300;46.192;9.000;2022-11-09T07:58:50;98608.84;;;10.32;100.00
61434;BME280;47300;46.192;9.000;2022-11-09T08:01:15;98614.97;;;10.37;99.91
61434;BME280;47300;46.192;9.000;2022-11-09T08:03:40;98606.22;;;10.41;99.66
61434;BME280;47300;46.192;9.000;2022-11-09T08:06:06;98619.34;;;10.52;98.43
61434;BME280;47300;46.192;9.000;2022-11-09T08:08:31;98621.09;;;10.58;97.04
61434;BME280;47300;46.192;9.000;2022-11-09T08:10:57;98628.09;;;10.65;97.79
61434;BME280;47300;46.192;9.000;2022-11-09T08:13:22;98635.97;;;10.62;100.00
61434;BME280;47300;46.192;9.000;2022-11-09T08:15:47;98636.88;;;10.46;100.00
61434;BME280;47300;46.192;9.000;2022-11-09T08:18:16;98642.13;;;10.41;99.98
61434;BME280;47300;46.192;9.000;2022-11-09T08:20:42;98651.75;;;10.53;99.73
61434;BME280;47300;46.192;9.000;2022-11-09T08:23:11;98645.59;;;10.57;100.00
61434;BME280;47300;46.192;9.000;2022-11-09T08:25:36;98647.34;;;10.56;100.00
61434;BME280;47300;46.192;9.000;2022-11-09T08:28:02;98645.59;;;10.55;100.00
61434;BME280;47300;46.192;9.000;2022-11-09T08:30:27;98643.88;;;10.64;100.00
61434;BME280;47300;46.192;9.000;2022-11-09T08:32:53;98642.09;;;10.66;100.00
61434;BME280;47300;46.192;9.000;2022-11-09T08:35:21;98641.22;;;10.70;100.00
61434;BME280;47300;46.192;9.000;2022-11-09T08:37:49;98640.34;;;10.71;100.00
61434;BME280;47300;46.192;9.000;2022-11-09T08:40:17;98638.59;;;10.73;100.00
61434;BME280;47300;46.192;9.000;2022-11-09T08:42:43;98637.75;;;10.54;100.00
61434;BME280;47300;46.192;9.000;2022-11-09T08:45:09;98638.63;;;10.53;100.00
61434;BME280;47300;46.192;9.000;2022-11-09T08:47:34;98635.09;;;10.55;100.00
61434;BME280;47300;46.192;9.000;2022-11-09T08:50:00;98633.34;;;10.56;100.00
61434;BME280;47300;46.192;9.000;2022-11-09T08:52:28;98624.63;;;10.62;100.00
61434;BME280;47300;46.192;9.000;2022-11-09T08:54:53;98618.44;;;10.78;100.00
61434;BME280;47300;46.192;9.000;2022-11-09T08:57:19;98613.16;;;10.95;100.00
61434;BME280;47300;46.192;9.000;2022-11-09T08:59:45;98602.63;;;11.06;100.00
61434;BME280;47300;46.192;9.000;2022-11-09T09:02:11;98608.72;;;11.11;100.00
61434;BME280;47300;46.192;9.000;2022-11-09T09:04:37;98618.31;;;11.19;99.47
61434;BME280;47300;46.192;9.000;2022-11-09T09:07:02;98611.28;;;11.27;98.82
61434;BME280;47300;46.192;9.000;2022-11-09T09:09:27;98619.16;;;11.28;97.93
61434;BME280;47300;46.192;9.000;2022-11-09T09:11:53;98620.88;;;11.36;96.36
61434;BME280;47300;46.192;9.000;2022-11-09T09:14:18;98620.00;;;11.35;94.18
61434;BME280;47300;46.192;9.000;2022-11-09T09:16:43;98617.41;;;11.29;90.47
61434;BME280;47300;46.192;9.000;2022-11-09T09:19:09;98621.78;;;11.27;88.57
61434;BME280;47300;46.192;9.000;2022-11-09T09:21:34;98625.25;;;11.35;88.59
61434;BME280;47300;46.192;9.000;2022-11-09T09:24:00;98620.03;;;11.29;88.93
61434;BME280;47300;46.192;9.000;2022-11-09T09:26:25;98617.38;;;11.35;87.96
61434;BME280;47300;46.192;9.000;2022-11-09T09:28:50;98627.00;;;11.33;90.76
61434;BME280;47300;46.192;9.000;2022-11-09T09:31:16;98619.94;;;11.49;89.50
61434;BME280;47300;46.192;9.000;2022-11-09T09:33:41;98623.44;;;11.53;88.64
61434;BME280;47300;46.192;9.000;2022-11-09T09:36:08;98615.50;;;11.64;86.66
61434;BME280;47300;46.192;9.000;2022-11-09T09:38:34;98624.22;;;11.72;86.68
61434;BME280;47300;46.192;9.000;2022-11-09T09:41:01;98620.69;;;11.71;86.62
61434;BME280;47300;46.192;9.000;2022-11-09T09:43:38;98622.44;;;11.72;84.67
61434;BME280;47300;46.192;9.000;2022-11-09T09:46:14;98618.94;;;11.77;87.27
61434;BME280;47300;46.192;9.000;2022-11-09T09:48:56;98611.09;;;11.69;89.71
61434;BME280;47300;46.192;9.000;2022-11-09T09:51:31;98615.44;;;11.75;89.20
61434;BME280;47300;46.192;9.000;2022-11-09T09:54:05;98616.28;;;11.78;89.33
61434;BME280;47300;46.192;9.000;2022-11-09T09:56:38;98610.13;;;11.79;90.66
61434;BME280;47300;46.192;9.000;2022-11-09T09:59:19;98614.44;;;11.90;90.56
61434;BME280;47300;46.192;9.000;2022-11-09T10:01:47;98610.91;;;11.95;89.58
61434;BME280;47300;46.192;9.000;2022-11-09T10:04:42;98612.63;;;12.07;90.47
61434;BME280;47300;46.192;9.000;2022-11-09T10:07:20;98611.69;;;12.11;88.89
61434;BME280;47300;46.192;9.000;2022-11-09T10:26:04;98594.72;;;12.51;84.08
61434;BME280;47300;46.192;9.000;2022-11-09T10:28:29;98592.94;;;12.53;82.88
61434;BME280;47300;46.192;9.000;2022-11-09T10:30:58;98588.56;;;12.51;84.37
61434;BME280;47300;46.192;9.000;2022-11-09T10:33:26;98586.75;;;12.57;84.42
61434;BME280;47300;46.192;9.000;2022-11-09T10:36:00;98585.88;;;12.55;83.76
61434;BME280;47300;46.192;9.000;2022-11-09T10:38:33;98586.69;;;12.62;84.42
61434;BME280;47300;46.192;9.000;2022-11-09T10:41:05;98585.78;;;12.63;82.60
61434;BME280;47300;46.192;9.000;2022-11-09T10:43:35;98591.09;;;12.62;81.38
61434;BME280;47300;46.192;9.000;2022-11-09T10:46:05;98588.50;;;12.58;81.66
61434;BME280;47300;46.192;9.000;2022-11-09T10:48:35;98583.09;;;12.72;81.65
61434;BME280;47300;46.192;9.000;2022-11-09T10:51:01;98580.38;;;12.79;81.41
61434;BME280;47300;46.192;9.000;2022-11-09T10:53:29;98584.72;;;12.83;82.04
61434;BME280;47300;46.192;9.000;2022-11-09T10:55:56;98592.56;;;12.89;81.03
61434;BME280;47300;46.192;9.000;2022-11-09T10:58:25;98574.94;;;12.94;80.29
61434;BME280;47300;46.192;9.000;2022-11-09T11:00:57;98580.16;;;12.99;80.68
61434;BME280;47300;46.192;9.000;2022-11-09T11:03:23;98572.25;;;12.99;80.73
61434;BME280;47300;46.192;9.000;2022-11-09T11:06:00;98578.41;;;12.98;80.21
61434;BME280;47300;46.192;9.000;2022-11-09T11:08:33;98569.63;;;12.97;80.21
61434;BME280;47300;46.192;9.000;2022-11-09T11:11:09;98568.75;;;12.95;81.17
61434;BME280;47300;46.192;9.000;2022-11-09T11:13:38;98569.66;;;12.96;81.75
61434;BME280;47300;46.192;9.000;2022-11-09T11:16:33;98567.84;;;13.01;83.17
61434;BME280;47300;46.192;9.000;2022-11-09T11:18:59;98567.06;;;12.91;84.82
61434;BME280;47300;46.192;9.000;2022-11-09T11:21:25;98565.53;;;12.70;84.95
61434;BME280;47300;46.192;9.000;2022-11-09T11:27:00;98557.56;;;12.78;85.55
61434;BME280;47300;46.192;9.000;2022-11-09T11:29:36;98558.50;;;12.72;88.15
61434;BME280;47300;46.192;9.000;2022-11-09T11:32:13;98559.34;;;12.74;89.17
61434;BME280;47300;46.192;9.000;2022-11-09T11:34:38;98550.59;;;12.73;88.57
61434;BME280;47300;46.192;9.000;2022-11-09T11:37:14;98548.88;;;12.68;90.02
61434;BME280;47300;46.192;9.000;2022-11-09T11:42:54;98546.44;;;12.51;88.82
61434;BME280;47300;46.192;9.000;2022-11-09T11:48:38;98539.38;;;12.53;91.60
61434;BME280;47300;46.192;9.000;2022-11-09T11:51:17;98545.53;;;12.52;90.39
61434;BME280;47300;46.192;9.000;2022-11-09T11:54:08;98541.13;;;12.55;90.29
61434;BME280;47300;46.192;9.000;2022-11-09T11:56:42;98532.28;;;12.63;89.96
61434;BME280;47300;46.192;9.000;2022-11-09T12:02:02;98528.75;;;12.62;88.86
61434;BME280;47300;46.192;9.000;2022-11-09T12:04:54;98523.66;;;12.47;88.21
61434;BME280;47300;46.192;9.000;2022-11-09T12:07:34;98528.94;;;12.47;87.65
61434;BME280;47300;46.192;9.000;2022-11-09T12:10:12;98527.97;;;12.55;87.91
61434;BME280;47300;46.192;9.000;2022-11-09T12:18:08;98521.16;;;12.31;87.88
61434;BME280;47300;46.192;9.000;2022-11-09T12:31:52;98507.13;;;12.34;88.42
61434;BME280;47300;46.192;9.000;2022-11-09T12:37:08;98506.19;;;12.38;88.37
61434;BME280;47300;46.192;9.000;2022-11-09T12:39:48;98506.13;;;12.44;89.20
61434;BME280;47300;46.192;9.000;2022-11-09T12:42:23;98499.19;;;12.38;90.35
61434;BME280;47300;46.192;9.000;2022-11-09T12:45:15;98500.03;;;12.40;91.71
61434;BME280;47300;46.192;9.000;2022-11-09T12:47:44;98494.69;;;12.45;90.67
61434;BME280;47300;46.192;9.000;2022-11-09T12:50:13;98495.59;;;12.44;89.31
61434;BME280;47300;46.192;9.000;2022-11-09T12:52:41;98500.84;;;12.45;89.73
61434;BME280;47300;46.192;9.000;2022-11-09T12:55:12;98503.41;;;12.52;90.83
61434;BME280;47300;46.192;9.000;2022-11-09T12:57:44;98502.50;;;12.56;91.63
61434;BME280;47300;46.192;9.000;2022-11-09T13:02:59;98502.50;;;12.57;92.93
61434;BME280;47300;46.192;9.000;2022-11-09T13:05:35;98504.16;;;12.63;90.83
61434;BME280;47300;46.192;9.000;2022-11-09T13:08:07;98501.53;;;12.65;91.59
61434;BME280;47300;46.192;9.000;2022-11-09T13:10:38;98510.34;;;12.61;91.38
61434;BME280;47300;46.192;9.000;2022-11-09T13:13:19;98500.72;;;12.59;90.33
61434;BME280;47300;46.192;9.000;2022-11-09T13:21:36;98515.53;;;12.65;87.51
61434;BME280;47300;46.192;9.000;2022-11-09T13:26:58;98518.34;;;12.48;88.12
61434;BME280;47300;46.192;9.000;2022-11-09T13:29:26;98520.16;;;12.43;88.53
61434;BME280;47300;46.192;9.000;2022-11-09T13:34:45;98525.28;;;12.57;88.73
61434;BME280;47300;46.192;9.000;2022-11-09T13:45:57;98524.72;;;12.28;94.38
61434;BME280;47300;46.192;9.000;2022-11-09T13:51:08;98516.00;;;12.23;94.73
61434;BME280;47300;46.192;9.000;2022-11-09T13:56:18;98513.31;;;12.28;93.06
61434;BME280;47300;46.192;9.000;2022-11-09T13:58:45;98509.81;;;12.27;94.10
61434;BME280;47300;46.192;9.000;2022-11-09T14:01:27;98515.03;;;12.30;94.20
61434;BME280;47300;46.192;9.000;2022-11-09T14:03:53;98507.16;;;12.29;94.09
61434;BME280;47300;46.192;9.000;2022-11-09T14:06:19;98503.63;;;12.33;93.98
61434;BME280;47300;46.192;9.000;2022-11-09T14:08:45;98498.28;;;12.38;93.70
61434;BME280;47300;46.192;9.000;2022-11-09T14:11:39;98504.44;;;12.37;94.23
61434;BME280;47300;46.192;9.000;2022-11-09T14:14:25;98498.25;;;12.42;93.09
61434;BME280;47300;46.192;9.000;2022-11-09T14:17:03;98491.22;;;12.43;92.92
61434;BME280;47300;46.192;9.000;2022-11-09T14:22:17;98482.50;;;12.38;93.90
61434;BME280;47300;46.192;9.000;2022-11-09T14:24:43;98477.31;;;12.33;92.58
61434;BME280;47300;46.192;9.000;2022-11-09T14:29:52;98483.59;;;12.16;91.08